Time;durP1;ratioP1;P1;durP2;ratioP2;P2;SDS_P1;SDS_P2;PMS_P1;PMS_P2;Temp;Humidity;BMP_temperature;BMP_pressure;BME280_temperature;BME280_humidity;BME280_pressure;Samples;Min_cycle;Max_cycle;Signal;HPM_P1;HPM_P2
2022/04/10 00:01:41;;;;;;;6.30;2.50;;;6.50;69.20;;;9.38;53.56;101272.03;5055524;28;20213;-59
2022/04/10 00:04:08;;;;;;;4.97;1.87;;;6.50;69.00;;;9.37;53.80;101280.03;5053894;28;20189;-59
2022/04/10 00:06:37;;;;;;;6.27;2.17;;;6.50;69.20;;;9.36;53.42;101284.50;5054762;28;20190;-59
2022/04/10 00:09:04;;;;;;;3.27;1.90;;;6.50;69.10;;;9.35;53.29;101276.75;5055188;28;20241;-59
2022/04/10 00:11:32;;;;;;;5.80;2.47;;;6.50;69.10;;;9.35;53.26;101277.56;5054768;28;20220;-59
2022/04/10 00:13:59;;;;;;;4.87;2.40;;;6.50;69.10;;;9.36;53.39;101279.25;5055445;28;20557;-57
2022/04/10 00:16:27;;;;;;;3.93;2.10;;;6.50;69.10;;;9.37;53.53;101275.63;5037664;28;20201;-60
2022/04/10 00:18:54;;;;;;;6.90;2.33;;;6.50;69.30;;;9.37;53.86;101286.13;5036367;28;20200;-59
2022/04/10 00:21:22;;;;;;;5.97;1.90;;;6.50;69.10;;;9.39;53.16;101286.78;5035421;28;20184;-62
2022/04/10 00:23:50;;;;;;;8.47;2.43;;;6.50;69.10;;;9.41;53.33;101292.72;5034751;28;20210;-59
2022/04/10 00:26:18;;;;;;;4.90;1.87;;;6.50;69.20;;;9.46;53.31;101290.44;5034723;28;20547;-57
2022/04/10 00:28:46;;;;;;;4.90;2.03;;;6.50;69.10;;;9.51;53.09;101290.81;5034523;28;20274;-58
2022/04/10 00:31:13;;;;;;;2.70;1.43;;;6.50;69.20;;;9.56;53.28;101300.88;5034626;28;20210;-59
2022/04/10 00:33:42;;;;;;;5.00;1.87;;;6.60;69.20;;;9.60;52.98;101290.88;5034842;28;20521;-60
2022/04/10 00:36:10;;;;;;;4.00;1.90;;;6.60;69.20;;;9.59;53.15;101299.75;5034658;28;20198;-60
2022/04/10 00:38:37;;;;;;;6.90;1.70;;;6.60;69.30;;;9.53;52.64;101295.94;5035068;28;20247;-60
2022/04/10 00:41:06;;;;;;;7.27;2.27;;;6.60;69.00;;;9.49;53.04;101298.03;5035455;28;20190;-61
2022/04/10 00:43:34;;;;;;;5.43;1.90;;;6.60;68.90;;;9.50;53.34;101285.72;5035333;28;20187;-60
2022/04/10 00:46:02;;;;;;;7.67;2.27;;;6.60;68.90;;;9.50;53.57;101291.81;5035079;28;20194;-59
2022/04/10 00:48:30;;;;;;;5.57;2.37;;;6.60;69.10;;;9.51;53.49;101296.06;5039322;28;20292;-57
2022/04/10 00:53:46;;;;;;;11.20;2.60;;;6.60;69.30;;;9.49;53.63;101300.66;5054166;28;20200;-60
2022/04/10 00:56:15;;;;;;;4.97;2.10;;;6.60;69.30;;;9.51;53.19;101305.75;5054243;28;20612;-60
2022/04/10 00:58:42;;;;;;;6.63;2.03;;;6.60;69.20;;;9.52;53.36;101308.25;5054356;28;20674;-60
2022/04/10 01:01:09;;;;;;;8.27;2.50;;;6.60;69.40;;;9.52;53.36;101300.38;5052835;28;20264;-60
2022/04/10 01:03:37;;;;;;;5.20;1.97;;;6.50;69.30;;;9.54;53.51;101295.78;5054016;28;20202;-59
2022/04/10 01:06:05;;;;;;;5.80;2.53;;;6.60;69.30;;;9.55;53.32;101301.88;5042225;28;20186;-59
2022/04/10 01:08:33;;;;;;;8.40;2.53;;;6.60;69.20;;;9.53;53.26;101302.00;5033781;28;20293;-61
2022/04/10 01:11:01;;;;;;;3.90;2.07;;;6.60;69.30;;;9.53;53.14;101301.19;5034215;28;20637;-61
2022/04/10 01:13:30;;;;;;;12.40;2.47;;;6.60;69.30;;;9.55;53.25;101297.41;5034549;28;20195;-61
2022/04/10 01:15:58;;;;;;;4.20;2.43;;;6.60;69.40;;;9.55;53.42;101302.66;5034419;28;20206;-60
2022/04/10 01:18:26;;;;;;;6.77;2.43;;;6.60;69.40;;;9.51;53.19;101308.38;5034860;28;20208;-61
2022/04/10 01:20:54;;;;;;;4.93;2.20;;;6.60;69.40;;;9.49;53.07;101310.34;5038193;28;20191;-60
2022/04/10 01:23:23;;;;;;;5.80;2.17;;;6.60;69.40;;;9.47;53.54;101312.31;5045446;28;20210;-60
2022/04/10 01:25:52;;;;;;;3.93;2.30;;;6.60;69.30;;;9.47;53.68;101307.06;5048241;28;20524;-59
2022/04/10 01:28:19;;;;;;;6.00;2.13;;;6.60;69.50;;;9.50;53.32;101318.09;5056392;28;20213;-60
2022/04/10 01:30:47;;;;;;;6.23;2.57;;;6.60;69.60;;;9.52;53.64;101310.88;5055257;28;20222;-61
2022/04/10 01:33:14;;;;;;;4.23;2.20;;;6.60;69.70;;;9.52;53.54;101316.13;5054958;28;20215;-59
2022/04/10 01:35:41;;;;;;;7.00;2.67;;;6.60;69.80;;;9.52;53.57;101321.38;5055496;28;20197;-61
2022/04/10 01:38:12;;;;;;;9.20;2.53;;;6.60;69.70;;;9.53;53.40;101328.28;5053557;28;20702;-58
2022/04/10 01:40:41;;;;;;;5.03;2.90;;;6.60;69.90;;;9.49;53.68;101321.69;5036470;28;20202;-59
2022/04/10 01:43:09;;;;;;;3.47;2.20;;;6.50;69.90;;;9.47;53.92;101328.91;5036477;28;20556;-59
2022/04/10 01:45:36;;;;;;;4.40;1.80;;;6.50;70.10;;;9.43;53.82;101326.72;5038556;28;20191;-59
2022/04/10 01:48:05;;;;;;;6.90;2.60;;;6.50;70.20;;;9.42;53.95;101335.56;5037639;28;20210;-58
2022/04/10 01:50:32;;;;;;;5.63;2.47;;;6.50;70.30;;;9.42;54.09;101340.84;5040812;28;20225;-59
2022/04/10 01:53:04;;;;;;;5.30;2.10;;;6.50;70.40;;;9.43;54.37;101353.00;5040226;28;20202;-60
2022/04/10 01:55:31;;;;;;;7.33;2.93;;;6.50;70.60;;;9.44;54.03;101347.59;5040559;28;20198;-62
2022/04/10 01:57:59;;;;;;;8.87;2.30;;;6.50;70.70;;;9.48;54.57;101351.56;5043042;28;20303;-60
2022/04/10 02:00:27;;;;;;;5.37;2.20;;;6.50;70.90;;;9.53;54.30;101357.19;5042469;28;20275;-61
2022/04/10 02:02:54;;;;;;;4.87;2.70;;;6.50;70.80;;;9.61;53.93;101347.69;5036132;28;20564;-58
2022/04/10 02:05:21;;;;;;;3.80;1.80;;;6.60;71.10;;;9.68;54.26;101346.13;5036921;28;20194;-59
2022/04/10 02:07:49;;;;;;;5.20;2.70;;;6.60;71.00;;;9.72;53.84;101342.22;5036539;28;20261;-59
2022/04/10 02:10:17;;;;;;;6.90;2.63;;;6.70;71.00;;;9.74;54.02;101343.72;5037079;28;20201;-60
2022/04/10 02:12:45;;;;;;;6.60;2.20;;;6.70;70.80;;;9.75;53.63;101336.63;5041453;28;20551;-59
2022/04/10 02:15:14;;;;;;;5.67;1.67;;;6.70;70.80;;;9.74;53.48;101345.50;5042509;28;20202;-61
2022/04/10 02:17:41;;;;;;;7.33;2.97;;;6.70;70.80;;;9.72;53.95;101347.47;5056220;28;20209;-58
2022/04/10 02:20:09;;;;;;;6.17;2.30;;;6.70;70.60;;;9.70;53.90;101338.91;5056231;28;20194;-60
2022/04/10 02:22:36;;;;;;;9.23;2.43;;;6.70;70.60;;;9.68;53.69;101340.84;5055830;28;20224;-62
2022/04/10 02:25:05;;;;;;;2.97;1.80;;;6.70;71.00;;;9.65;53.45;101331.47;5056245;28;20218;-60
2022/04/10 02:27:33;;;;;;;7.60;2.27;;;6.70;70.80;;;9.61;53.89;101330.13;5055748;28;20681;-60
2022/04/10 02:30:01;;;;;;;6.47;2.60;;;6.60;70.50;;;9.57;54.15;101333.22;5054515;28;20270;-57
2022/04/10 02:32:30;;;;;;;7.07;2.33;;;6.60;70.60;;;9.47;53.54;101335.94;5056202;28;20218;-60
2022/04/10 02:34:57;;;;;;;5.30;2.40;;;6.60;70.30;;;9.39;53.89;101336.72;5056101;28;20599;-57
2022/04/10 02:37:25;;;;;;;5.93;2.50;;;6.50;70.40;;;9.30;54.06;101326.28;5055639;28;20221;-60
2022/04/10 02:39:52;;;;;;;6.27;2.57;;;6.50;70.40;;;9.21;54.21;101322.78;5054916;28;20280;-60
2022/04/10 02:42:19;;;;;;;10.37;2.30;;;6.40;70.40;;;9.19;54.56;101322.09;5055850;28;20559;-59
2022/04/10 02:44:47;;;;;;;8.67;2.40;;;6.40;70.80;;;9.19;54.50;101329.97;5055929;28;20194;-60
2022/04/10 02:47:14;;;;;;;6.07;2.50;;;6.40;71.00;;;9.22;55.00;101339.38;5047206;28;20716;-61
2022/04/10 02:49:42;;;;;;;7.67;2.23;;;6.30;71.50;;;9.21;54.85;101343.78;5036002;28;20194;-60
2022/04/10 02:52:10;;;;;;;3.30;2.47;;;6.30;71.40;;;9.21;54.72;101338.53;5035974;28;20219;-60
2022/04/10 02:54:37;;;;;;;6.17;2.20;;;6.30;71.30;;;9.23;55.05;101336.56;5035319;28;20186;-60
2022/04/10 02:57:23;;;;;;;5.53;2.30;;;6.30;71.50;;;9.25;54.79;101324.13;5035924;28;20236;-59
2022/04/10 03:00:09;;;;;;;6.67;2.80;;;6.30;71.50;;;9.28;54.71;101333.50;5036725;28;20249;-60
2022/04/10 03:02:55;;;;;;;7.53;2.53;;;6.30;71.40;;;9.28;54.57;101339.56;5038346;28;20599;-60
2022/04/10 03:05:42;;;;;;;5.43;2.50;;;6.30;71.30;;;9.31;54.63;101344.53;5035756;28;20335;-61
2022/04/10 03:08:27;;;;;;;5.70;2.37;;;6.30;71.30;;;9.33;54.78;101342.59;5035388;28;21188;-59
2022/04/10 03:11:13;;;;;;;4.30;2.37;;;6.40;71.40;;;9.32;54.29;101350.59;5035375;28;20237;-58
2022/04/10 03:13:58;;;;;;;6.20;2.20;;;6.40;71.20;;;9.32;54.45;101346.16;5035152;28;20210;-61
2022/04/10 03:16:44;;;;;;;5.27;2.57;;;6.40;71.10;;;9.33;54.55;101353.09;5035092;28;20226;-58
2022/04/10 03:19:30;;;;;;;6.60;2.70;;;6.40;71.20;;;9.33;54.52;101347.84;5035434;28;20288;-60
2022/04/10 03:22:17;;;;;;;7.80;3.20;;;6.40;71.10;;;9.33;54.55;101352.25;5053811;28;20204;-61
2022/04/10 03:25:04;;;;;;;8.43;2.67;;;6.40;71.00;;;9.29;54.40;101350.91;5055055;28;20220;-60
2022/04/10 03:27:50;;;;;;;13.33;3.17;;;6.40;70.90;;;9.26;54.59;101346.78;5054796;28;20224;-61
2022/04/10 03:30:36;;;;;;;5.23;2.57;;;6.30;70.90;;;9.18;54.31;101351.94;5054898;28;20286;-60
2022/04/10 03:33:22;;;;;;;6.17;2.70;;;6.30;70.70;;;9.10;54.47;101361.56;5068205;28;20209;-61
2022/04/10 03:36:08;;;;;;;7.17;2.70;;;6.30;70.60;;;9.01;54.72;101362.47;5053884;28;20189;-60
2022/04/10 03:38:54;;;;;;;10.40;2.83;;;6.20;70.80;;;8.91;55.07;101365.16;5053936;28;20213;-60
2022/04/10 03:41:40;;;;;;;8.67;3.00;;;6.20;70.90;;;8.82;55.06;101379.13;5054926;28;20208;-59
2022/04/10 03:44:26;;;;;;;8.50;3.17;;;6.10;71.10;;;8.72;55.46;101367.91;5055055;28;20210;-58
2022/04/10 03:47:12;;;;;;;6.90;3.03;;;6.00;71.40;;;8.66;55.65;101378.97;5054284;28;20225;-60
2022/04/10 03:49:57;;;;;;;7.47;2.57;;;6.00;71.70;;;8.60;55.69;101369.91;5053518;28;20208;-60
2022/04/10 03:52:43;;;;;;;4.00;2.40;;;5.90;71.80;;;8.53;55.82;101374.09;5054524;28;20355;-60
2022/04/10 03:55:32;;;;;;;5.37;2.53;;;5.80;71.90;;;8.47;56.10;101374.66;5054520;28;20220;-59
2022/04/10 03:58:18;;;;;;;14.93;3.23;;;5.80;72.00;;;8.45;55.55;101375.75;5054247;28;20222;-59
2022/04/10 04:01:03;;;;;;;8.07;2.87;;;5.70;72.10;;;8.43;56.04;101375.91;5054161;28;20209;-57
2022/04/10 04:03:49;;;;;;;7.57;2.43;;;5.70;72.20;;;8.40;56.18;101388.47;5054703;28;20214;-58
2022/04/10 04:06:35;;;;;;;10.33;2.87;;;5.70;72.60;;;8.36;56.35;101387.13;5053638;28;20580;-59
2022/04/10 04:09:21;;;;;;;7.10;2.70;;;5.60;72.40;;;8.32;56.45;101397.06;5035020;28;20211;-59
2022/04/10 04:12:09;;;;;;;4.13;2.20;;;5.60;72.50;;;8.29;56.22;101393.91;5034156;28;20337;-61
2022/04/10 04:14:55;;;;;;;6.33;3.07;;;5.60;72.70;;;8.29;56.53;101396.53;5034622;28;20214;-60
2022/04/10 04:17:41;;;;;;;12.27;2.70;;;5.60;72.70;;;8.28;56.71;101403.56;5033886;28;20280;-60
2022/04/10 04:20:27;;;;;;;7.73;3.17;;;5.60;72.70;;;8.27;56.23;101399.31;5033079;28;20209;-61
2022/04/10 04:23:15;;;;;;;5.63;1.93;;;5.50;72.80;;;8.30;56.43;101404.25;5034878;28;20323;-61
2022/04/10 04:26:01;;;;;;;9.10;3.00;;;5.50;72.80;;;8.33;56.40;101403.13;5038618;28;20233;-58
2022/04/10 04:28:47;;;;;;;9.63;3.07;;;5.60;72.70;;;8.34;56.97;101412.66;5039451;28;20230;-59
2022/04/10 04:31:33;;;;;;;10.80;2.50;;;5.60;72.80;;;8.36;56.39;101423.84;5036779;28;20366;-58
2022/04/10 04:34:21;;;;;;;10.00;2.90;;;5.60;72.70;;;8.39;56.39;101418.31;5035306;28;20253;-58
2022/04/10 04:37:07;;;;;;;7.33;2.63;;;5.60;72.80;;;8.42;56.52;101418.00;5033986;28;20222;-60
2022/04/10 04:39:53;;;;;;;8.37;2.60;;;5.60;72.80;;;8.43;56.02;101420.50;5033718;28;20194;-59
2022/04/10 04:42:38;;;;;;;6.60;2.43;;;5.60;72.40;;;8.46;56.17;101422.00;5050458;28;20283;-60
2022/04/10 04:45:25;;;;;;;9.70;3.10;;;5.70;72.40;;;8.49;55.99;101419.91;5054109;28;20212;-59
2022/04/10 04:48:11;;;;;;;12.27;3.03;;;5.70;72.40;;;8.52;56.11;101424.06;5053452;28;20220;-59
2022/04/10 04:50:57;;;;;;;13.33;3.33;;;5.70;72.20;;;8.55;55.98;101429.84;5053768;28;20205;-57
2022/04/10 04:53:43;;;;;;;8.07;2.90;;;5.70;72.30;;;8.57;55.84;101437.56;5054921;28;20242;-58
2022/04/10 04:56:30;;;;;;;5.67;2.47;;;5.70;72.00;;;8.58;55.65;101434.78;5059765;28;20196;-60
2022/04/10 04:59:16;;;;;;;10.20;3.10;;;5.80;72.00;;;8.59;55.72;101436.44;5046299;28;20309;-60
2022/04/10 05:02:03;;;;;;;8.03;2.23;;;5.80;71.80;;;8.60;55.65;101445.16;5040176;28;20202;-60
2022/04/10 05:04:51;;;;;;;12.30;2.73;;;5.80;71.60;;;8.62;55.63;101451.09;5039818;28;20194;-60
2022/04/10 05:07:37;;;;;;;12.00;3.10;;;5.80;71.40;;;8.66;55.23;101457.69;5037356;28;20279;-60
2022/04/10 05:10:22;;;;;;;9.07;2.97;;;5.80;71.20;;;8.70;55.34;101454.63;5037206;28;20276;-60
2022/04/10 05:13:08;;;;;;;7.00;2.37;;;5.90;71.20;;;8.75;55.06;101468.13;5036347;28;20234;-60
2022/04/10 05:15:54;;;;;;;8.00;2.60;;;5.90;70.70;;;8.77;55.05;101454.91;5052756;28;20260;-60
2022/04/10 05:18:42;;;;;;;11.70;2.47;;;5.90;70.60;;;8.79;54.92;101463.44;5061731;28;20228;-60
2022/04/10 05:21:28;;;;;;;8.27;2.90;;;5.90;70.40;;;8.86;54.87;101469.75;5062362;28;20191;-60
2022/04/10 05:24:14;;;;;;;9.53;2.57;;;6.00;70.40;;;8.95;54.42;101476.75;5061204;28;20697;-61
2022/04/10 05:27:00;;;;;;;7.27;2.27;;;6.00;70.10;;;8.98;54.14;101486.97;5060596;28;20229;-60
2022/04/10 05:29:45;;;;;;;6.83;2.97;;;6.10;70.00;;;9.00;54.03;101479.78;5059698;28;20251;-60
2022/04/10 05:32:31;;;;;;;8.37;2.73;;;6.10;69.90;;;9.04;54.22;101489.00;5059079;28;20224;-61
2022/04/10 05:35:19;;;;;;;9.77;2.40;;;6.20;69.70;;;9.08;53.84;101492.97;5069042;28;20342;-60
2022/04/10 05:38:05;;;;;;;5.90;2.87;;;6.20;69.50;;;9.11;54.00;101495.31;5066037;28;20248;-59
2022/04/10 05:40:54;;;;;;;7.70;2.50;;;6.20;69.60;;;9.15;53.66;101495.88;5061440;28;20211;-61
2022/04/10 05:43:41;;;;;;;6.90;2.23;;;6.30;69.70;;;9.18;53.96;101500.81;5059208;28;20677;-61
2022/04/10 05:46:27;;;;;;;5.00;2.13;;;6.30;69.80;;;9.18;53.43;101511.31;5059785;28;20217;-61
2022/04/10 05:49:13;;;;;;;7.03;2.23;;;6.30;69.70;;;9.19;54.13;101503.31;5047492;28;20213;-62
2022/04/10 05:52:00;;;;;;;6.90;2.17;;;6.40;70.60;;;9.20;54.20;101510.19;5044265;28;20280;-59
2022/04/10 05:54:46;;;;;;;7.60;2.60;;;6.40;69.90;;;9.23;53.64;101509.91;5039584;28;20584;-61
2022/04/10 05:57:31;;;;;;;7.80;2.43;;;6.40;69.90;;;9.26;54.11;101520.13;5038391;28;20774;-61
2022/04/10 06:00:17;;;;;;;9.20;2.40;;;6.40;70.00;;;9.32;54.11;101519.53;5038527;28;20517;-60
2022/04/10 06:03:04;;;;;;;6.47;2.30;;;6.40;69.90;;;9.34;54.05;101509.69;5038483;28;20681;-60
2022/04/10 06:05:51;;;;;;;7.17;2.23;;;6.50;69.90;;;9.37;53.98;101517.28;5039169;28;20233;-58
2022/04/10 06:08:38;;;;;;;5.27;2.20;;;6.50;69.90;;;9.40;53.81;101527.50;5038609;28;20698;-60
2022/04/10 06:11:23;;;;;;;7.97;2.37;;;6.50;69.80;;;9.43;54.05;101521.16;5038685;28;20209;-61
2022/04/10 06:14:09;;;;;;;6.83;2.53;;;6.50;69.60;;;9.48;53.69;101513.66;5037649;28;20274;-57
2022/04/10 06:16:36;;;;;;;9.07;2.23;;;6.60;69.60;;;9.51;53.60;101529.94;5037022;28;20185;-56
2022/04/10 06:19:03;;;;;;;7.60;2.23;;;6.60;69.20;;;9.57;53.63;101532.94;5038533;28;20195;-58
2022/04/10 06:21:31;;;;;;;6.97;1.90;;;6.60;69.20;;;9.62;53.67;101530.69;5038587;28;20195;-57
2022/04/10 06:23:59;;;;;;;5.77;2.00;;;6.70;69.20;;;9.69;53.43;101534.38;5052015;28;20225;-60
2022/04/10 06:26:27;;;;;;;6.60;2.40;;;6.80;69.90;;;9.77;52.96;101545.00;5039188;28;20218;-58
2022/04/10 06:28:54;;;;;;;5.50;1.70;;;6.80;69.00;;;9.84;52.79;101540.78;5037559;28;20195;-56
2022/04/10 06:31:22;;;;;;;5.87;2.00;;;6.90;68.90;;;9.91;52.83;101547.91;5039480;28;20292;-60
2022/04/10 06:33:50;;;;;;;7.33;2.17;;;6.90;68.60;;;10.00;52.92;101551.44;5039604;28;20210;-58
2022/04/10 06:36:17;;;;;;;3.87;1.77;;;7.00;68.80;;;10.09;52.41;101550.53;5037281;28;20201;-60
2022/04/10 06:38:46;;;;;;;6.10;1.90;;;7.10;68.70;;;10.20;52.65;101547.69;5038678;28;20214;-61
2022/04/10 06:41:14;;;;;;;1.77;1.30;;;7.20;68.70;;;10.33;52.76;101553.41;5035845;28;20289;-59
2022/04/10 06:43:42;;;;;;;4.67;1.50;;;7.20;68.60;;;10.48;52.45;101551.88;5035968;28;20193;-59
2022/04/10 06:46:09;;;;;;;4.93;1.93;;;7.40;68.30;;;10.63;51.91;101554.75;5035138;28;20187;-60
2022/04/10 06:48:38;;;;;;;4.00;2.17;;;7.50;68.00;;;10.76;51.70;101561.28;5035542;28;20214;-61
2022/04/10 06:51:05;;;;;;;3.40;2.00;;;7.60;67.60;;;10.88;51.16;101560.03;5035543;28;20191;-61
2022/04/10 06:53:33;;;;;;;3.70;1.43;;;7.80;67.20;;;11.03;51.42;101556.81;5035395;28;20297;-59
2022/04/10 06:56:00;;;;;;;4.53;1.50;;;7.90;66.90;;;11.12;50.50;101561.97;5036655;28;20202;-60
2022/04/10 06:58:29;;;;;;;5.90;2.17;;;8.00;66.50;;;11.21;50.15;101566.28;5034946;28;20238;-61
2022/04/10 07:00:56;;;;;;;4.00;1.83;;;8.00;65.80;;;11.27;50.32;101578.00;5035678;28;20269;-59
2022/04/10 07:03:24;;;;;;;6.07;2.07;;;8.20;66.00;;;11.34;50.10;101573.72;5035736;28;20202;-60
2022/04/10 07:05:52;;;;;;;6.03;2.13;;;8.20;65.70;;;11.38;49.49;101577.72;5034327;28;20270;-63
2022/04/10 07:08:19;;;;;;;6.77;2.13;;;8.20;64.70;;;11.41;49.11;101572.16;5034952;28;20210;-58
2022/04/10 07:10:46;;;;;;;9.33;2.40;;;8.30;64.60;;;11.42;49.30;101574.59;5034728;28;20203;-61
2022/04/10 07:13:17;;;;;;;5.17;2.20;;;8.30;64.70;;;11.49;49.72;101582.69;5051654;28;20219;-61
2022/04/10 07:15:47;;;;;;;6.10;1.73;;;8.40;64.50;;;11.51;49.02;101583.34;5055701;28;20205;-58
2022/04/10 07:18:14;;;;;;;6.87;2.10;;;8.40;64.30;;;11.59;49.09;101580.75;5054647;28;20563;-58
2022/04/10 07:20:42;;;;;;;3.93;1.87;;;8.40;63.90;;;11.76;48.64;101582.50;5053770;28;20620;-60
2022/04/10 07:25:55;;;;;;;3.53;1.70;;;8.70;64.00;;;12.43;47.85;101585.88;5059304;28;20227;-61
2022/04/10 07:28:22;;;;;;;6.03;1.77;;;8.90;63.10;;;12.88;46.28;101578.22;5056815;28;20216;-61
2022/04/10 07:30:51;;;;;;;3.17;1.80;;;9.10;61.90;;;13.32;45.40;101590.00;5058086;28;20208;-60
2022/04/10 07:33:19;;;;;;;5.10;1.77;;;9.40;61.50;;;13.91;44.93;101593.81;5058212;28;20272;-61
2022/04/10 07:35:46;;;;;;;5.53;2.43;;;9.70;60.40;;;14.42;43.94;101600.28;5057440;28;20186;-61
2022/04/10 07:38:14;;;;;;;7.63;2.10;;;10.10;59.10;;;14.82;43.03;101591.97;5055955;28;20205;-61
2022/04/10 07:40:41;;;;;;;4.63;1.80;;;10.50;58.00;;;15.10;41.85;101608.06;5054757;28;20197;-61
2022/04/10 07:43:08;;;;;;;3.77;1.77;;;10.80;56.60;;;15.31;41.35;101602.84;5054519;28;20190;-61
2022/04/10 07:48:23;;;;;;;5.70;1.80;;;11.30;54.50;;;15.47;40.54;101599.22;5054507;28;20210;-61
2022/04/10 07:50:51;;;;;;;4.40;1.97;;;11.40;54.10;;;16.01;39.87;101603.09;5053529;28;20272;-60
2022/04/10 07:53:18;;;;;;;6.53;1.90;;;11.70;54.60;;;16.74;39.25;101597.44;5054759;28;20244;-60
2022/04/10 07:55:46;;;;;;;5.50;2.00;;;12.10;53.90;;;17.43;37.74;101598.25;5053469;28;20205;-61
2022/04/10 07:58:13;;;;;;;5.37;1.70;;;12.60;52.30;;;18.01;36.33;101609.34;5053874;28;20209;-59
2022/04/10 08:00:40;;;;;;;6.07;2.00;;;13.00;51.50;;;18.17;35.17;101616.97;5054344;28;20186;-61
2022/04/10 08:03:08;;;;;;;6.17;2.93;;;13.30;48.80;;;18.27;34.44;101612.91;5051391;28;20190;-61
2022/04/10 08:05:37;;;;;;;6.43;2.20;;;13.50;47.80;;;18.46;34.50;101623.81;5053145;28;20204;-61
2022/04/10 08:08:04;;;;;;;5.03;1.50;;;13.80;47.80;;;18.65;34.01;101621.16;5053796;28;20581;-59
2022/04/10 08:10:32;;;;;;;4.80;2.27;;;14.00;47.10;;;18.78;33.48;101618.47;5053905;28;20725;-60
2022/04/10 08:12:59;;;;;;;4.17;1.70;;;14.10;46.30;;;18.92;33.96;101625.41;5053479;28;20210;-61
2022/04/10 08:15:27;;;;;;;3.73;1.70;;;14.40;47.00;;;18.80;33.10;101634.28;5053998;28;20251;-62
2022/04/10 08:17:56;;;;;;;3.90;1.30;;;14.40;45.30;;;18.44;33.39;101629.31;5053420;28;20206;-59
2022/04/10 08:20:23;;;;;;;4.40;1.57;;;14.40;44.90;;;18.03;33.86;101639.28;5051478;28;20687;-61
2022/04/10 08:22:53;;;;;;;3.17;1.83;;;14.20;45.20;;;17.69;34.46;101644.69;5053331;28;20212;-61
2022/04/10 08:25:25;;;;;;;3.80;1.50;;;14.00;45.40;;;17.67;34.33;101654.72;5053822;28;20251;-61
2022/04/10 08:27:52;;;;;;;4.83;1.93;;;13.70;45.50;;;17.49;34.81;101640.09;5053130;28;20550;-61
2022/04/10 08:30:20;;;;;;;4.93;1.90;;;13.60;46.60;;;17.32;34.86;101654.72;5053340;28;20197;-62
2022/04/10 08:32:48;;;;;;;4.47;1.73;;;13.50;46.40;;;17.28;35.44;101658.78;5052910;28;20217;-59
2022/04/10 08:35:16;;;;;;;4.30;2.90;;;13.50;47.30;;;17.45;35.04;101660.09;5053029;28;20289;-60
2022/04/10 08:37:43;;;;;;;5.50;2.10;;;13.40;47.00;;;17.41;34.50;101653.53;5035074;28;20234;-62
2022/04/10 08:40:12;;;;;;;5.87;1.77;;;13.30;46.70;;;17.13;34.87;101659.91;5033434;28;20213;-62
2022/04/10 08:42:40;;;;;;;5.47;1.57;;;13.20;47.00;;;16.75;35.56;101664.75;5033374;28;20197;-62
2022/04/10 08:45:09;;;;;;;5.90;1.70;;;13.10;47.50;;;16.55;36.52;101659.25;5031989;28;20187;-62
2022/04/10 08:47:39;;;;;;;6.00;2.00;;;13.00;48.00;;;16.71;36.62;101676.78;5031971;28;20218;-61
2022/04/10 08:50:08;;;;;;;5.27;1.50;;;12.90;48.30;;;16.82;36.15;101658.47;5031828;28;20241;-62
2022/04/10 08:52:37;;;;;;;5.40;1.70;;;12.90;48.30;;;16.72;35.70;101668.59;5033315;28;20194;-60
2022/04/10 08:55:06;;;;;;;5.00;1.43;;;12.90;48.10;;;16.68;35.99;101671.84;5033401;28;20190;-62
2022/04/10 08:57:35;;;;;;;3.17;1.50;;;12.90;48.60;;;16.83;35.97;101675.22;5032883;28;20210;-61
2022/04/10 09:00:04;;;;;;;4.93;1.50;;;12.90;48.60;;;16.74;36.18;101671.91;5032929;28;20195;-61
2022/04/10 09:02:32;;;;;;;2.90;1.63;;;12.90;48.10;;;16.65;36.15;101677.53;5033054;28;20646;-60
2022/04/10 09:04:59;;;;;;;3.13;1.73;;;12.90;48.60;;;16.40;37.12;101673.59;5033046;28;20634;-61
2022/04/10 09:07:26;;;;;;;2.93;1.67;;;12.80;49.00;;;16.11;37.39;101679.81;5032253;28;20682;-62
2022/04/10 09:09:57;;;;;;;3.13;1.70;;;12.60;49.50;;;16.03;37.76;101682.59;5040335;28;20604;-59
2022/04/10 09:12:24;;;;;;;5.27;1.90;;;12.40;50.20;;;16.82;37.09;101677.09;5053133;28;20197;-61
2022/04/10 09:15:03;;;;;;;2.83;1.80;;;12.50;50.50;;;17.14;36.55;101669.56;5051807;28;20301;-62
2022/04/10 09:17:30;;;;;;;3.63;1.50;;;12.70;50.80;;;17.04;36.03;101675.22;5052145;28;20275;-61
2022/04/10 09:20:00;;;;;;;5.40;1.57;;;12.80;49.10;;;17.01;36.14;101664.13;5052919;28;20201;-59
2022/04/10 09:22:29;;;;;;;5.67;2.23;;;12.90;49.30;;;17.81;35.44;101675.06;5051724;28;20208;-61
2022/04/10 09:25:11;;;;;;;6.00;2.00;;;13.10;48.70;;;19.11;33.81;101676.31;5052599;28;20182;-63
2022/04/10 09:27:41;;;;;;;6.53;2.10;;;13.60;49.00;;;20.30;31.59;101665.03;5050878;28;20212;-62
2022/04/10 09:30:14;;;;;;;7.40;2.30;;;14.20;46.60;;;21.22;30.09;101667.81;5052935;28;20639;-60
2022/04/10 09:32:44;;;;;;;5.77;2.07;;;14.80;45.40;;;22.19;28.94;101666.84;5052867;28;20235;-62
2022/04/10 09:35:14;;;;;;;4.27;2.10;;;15.50;44.70;;;23.02;27.85;101680.22;5053119;28;20194;-62
2022/04/10 09:37:48;;;;;;;6.13;1.87;;;16.30;43.30;;;24.01;26.87;101669.22;5052767;28;20214;-62
2022/04/10 09:40:28;;;;;;;4.50;2.00;;;16.90;41.60;;;23.88;26.47;101670.31;5052708;28;20530;-62
2022/04/10 09:43:01;;;;;;;5.97;2.10;;;17.60;39.70;;;23.86;26.04;101669.75;5051785;28;20643;-63
2022/04/10 09:45:36;;;;;;;6.07;2.30;;;17.90;37.40;;;23.77;25.60;101671.16;5033007;28;20221;-61
2022/04/10 09:48:24;;;;;;;4.37;2.00;;;18.10;36.40;;;24.11;25.25;101677.50;5032269;28;20210;-63
2022/04/10 09:50:54;;;;;;;5.83;1.63;;;18.30;35.20;;;24.06;24.80;101670.16;5032571;28;20278;-62
2022/04/10 09:53:22;;;;;;;8.10;2.03;;;18.40;34.50;;;23.71;25.20;101674.81;5031160;28;20214;-60
2022/04/10 09:55:53;;;;;;;7.77;3.40;;;18.40;34.70;;;22.91;24.93;101681.88;5033117;28;20336;-62
2022/04/10 09:58:22;;;;;;;5.73;2.60;;;18.20;33.40;;;22.00;25.71;101690.22;5033197;28;20617;-62
2022/04/10 10:00:54;;;;;;;5.20;2.10;;;17.80;34.00;;;21.10;26.94;101699.03;5034310;28;20193;-61
2022/04/10 10:03:25;;;;;;;3.27;1.60;;;17.10;35.20;;;21.15;27.91;101690.34;5034698;28;20191;-62
2022/04/10 10:05:54;;;;;;;4.83;1.63;;;16.90;37.10;;;22.01;27.64;101685.69;5037487;28;20195;-62
2022/04/10 10:08:23;;;;;;;4.33;1.87;;;16.90;38.60;;;22.89;26.78;101690.13;5036461;28;20210;-62
2022/04/10 10:10:51;;;;;;;5.00;2.30;;;17.10;38.50;;;23.31;26.09;101692.72;5035007;28;20268;-62
2022/04/10 10:13:26;;;;;;;7.07;2.20;;;17.30;37.90;;;24.02;25.25;101684.28;5034973;28;20228;-62
2022/04/10 10:15:55;;;;;;;3.77;1.67;;;17.60;37.70;;;24.84;23.90;101682.84;5036089;28;20202;-62
2022/04/10 10:18:25;;;;;;;3.67;1.60;;;18.10;36.00;;;25.28;24.21;101678.38;5049289;28;20225;-60
2022/04/10 10:20:52;;;;;;;4.13;1.97;;;18.60;36.30;;;25.98;22.76;101679.25;5056254;28;20190;-63
2022/04/10 10:23:22;;;;;;;5.43;2.00;;;19.10;34.70;;;26.67;21.95;101671.34;5055792;28;20309;-62
2022/04/10 10:26:10;;;;;;;7.50;2.67;;;19.60;33.00;;;27.17;21.31;101687.91;5056036;28;20202;-63
2022/04/10 10:29:22;;;;;;;4.27;2.33;;;20.00;31.40;;;26.93;21.41;101685.88;5056199;28;20214;-63
2022/04/10 10:32:12;;;;;;;7.00;2.30;;;20.30;30.90;;;25.75;21.13;101705.72;5057417;28;20600;-63
2022/04/10 10:34:42;;;;;;;5.43;2.07;;;20.00;29.20;;;24.52;21.86;101700.56;5056940;28;20214;-63
2022/04/10 10:37:14;;;;;;;7.93;2.67;;;19.40;30.00;;;23.25;23.80;101733.97;5057235;28;20620;-61
2022/04/10 10:39:45;;;;;;;5.47;1.70;;;18.90;30.80;;;22.03;25.89;101748.78;5059006;28;20190;-61
2022/04/10 10:42:13;;;;;;;3.90;1.80;;;18.00;33.30;;;20.96;27.82;101758.22;5056199;28;20197;-62
2022/04/10 10:44:47;;;;;;;4.73;2.80;;;17.10;37.60;;;19.96;30.68;101778.50;5056315;28;20193;-59
2022/04/10 10:47:25;;;;;;;4.83;2.57;;;16.40;40.10;;;19.04;32.17;101774.25;5056027;28;20214;-59
2022/04/10 10:49:54;;;;;;;3.40;2.33;;;15.50;42.80;;;18.28;32.87;101770.97;5055858;28;20221;-59
2022/04/10 10:52:23;;;;;;;4.07;2.07;;;14.90;42.80;;;17.72;33.48;101769.47;5056587;28;20186;-61
2022/04/10 10:54:53;;;;;;;2.67;1.93;;;14.20;43.80;;;17.49;34.18;101759.88;5055124;28;20226;-63
2022/04/10 10:57:37;;;;;;;6.00;2.47;;;13.90;45.20;;;17.92;33.64;101759.75;5055788;28;20694;-62